Time;durP1;ratioP1;P1;durP2;ratioP2;P2;SDS_P1;SDS_P2;PMS_P1;PMS_P2;Temp;Humidity;BMP_temperature;BMP_pressure;BME280_temperature;BME280_humidity;BME280_pressure;Samples;Min_cycle;Max_cycle;Signal;HPM_P1;HPM_P2
2022/12/26 00:01:54;;;;;;;7.85;2.17;;;24.40;34.80;;;;;;5088817;28;20213;-61
2022/12/26 00:04:22;;;;;;;3.05;1.90;;;24.30;35.90;;;;;;5080939;28;20076;-61
2022/12/26 00:06:49;;;;;;;7.38;1.80;;;24.10;36.00;;;;;;5081288;28;20073;-60
2022/12/26 00:09:16;;;;;;;5.65;1.70;;;24.00;36.30;;;;;;5078184;28;20077;-63
2022/12/26 00:11:43;;;;;;;4.63;1.85;;;23.90;36.40;;;;;;5058876;28;20077;-62
2022/12/26 00:14:12;;;;;;;5.60;1.40;;;23.80;37.00;;;;;;5082118;28;20079;-62
2022/12/26 00:16:41;;;;;;;9.75;1.83;;;23.70;36.80;;;;;;5076582;28;20068;-60
2022/12/26 00:19:08;;;;;;;9.10;1.65;;;23.50;36.60;;;;;;5078775;28;20081;-62
2022/12/26 00:21:34;;;;;;;6.95;2.00;;;23.40;37.50;;;;;;5079530;28;20151;-62
2022/12/26 00:24:01;;;;;;;13.60;2.00;;;23.20;37.90;;;;;;5087721;28;20160;-62
2022/12/26 00:26:30;;;;;;;5.82;1.92;;;23.10;38.90;;;;;;5081687;28;20073;-61
2022/12/26 00:28:57;;;;;;;8.48;2.40;;;23.00;39.90;;;;;;5082646;28;20429;-62
2022/12/26 00:31:29;;;;;;;12.68;2.80;;;22.90;40.50;;;;;;5087386;28;20114;-60
2022/12/26 00:33:56;;;;;;;4.93;1.98;;;22.70;41.40;;;;;;5086326;28;20134;-62
2022/12/26 00:36:26;;;;;;;7.97;2.13;;;22.50;41.80;;;;;;5083701;28;20104;-63
2022/12/26 00:38:53;;;;;;;9.80;2.53;;;22.40;42.40;;;;;;5074973;28;20088;-62
2022/12/26 00:41:20;;;;;;;10.00;2.60;;;22.20;42.60;;;;;;5079826;28;20073;-61
2022/12/26 00:43:48;;;;;;;9.70;2.40;;;22.00;43.10;;;;;;5081734;28;20556;-61
2022/12/26 00:46:14;;;;;;;8.13;2.47;;;21.80;43.50;;;;;;5074923;28;20138;-61
2022/12/26 00:48:41;;;;;;;6.57;2.30;;;21.60;43.90;;;;;;5080429;28;20104;-61
2022/12/26 00:51:07;;;;;;;10.23;2.72;;;21.40;44.40;;;;;;5080878;28;20073;-62
2022/12/26 00:53:34;;;;;;;7.07;2.40;;;21.30;44.90;;;;;;5082768;28;20096;-61
2022/12/26 00:56:00;;;;;;;6.40;2.30;;;21.20;45.10;;;;;;5081241;28;20422;-63
2022/12/26 00:58:27;;;;;;;12.27;2.45;;;21.00;45.50;;;;;;5080618;28;20111;-64
2022/12/26 01:00:54;;;;;;;14.77;2.35;;;20.80;45.20;;;;;;5079700;28;20474;-61
2022/12/26 01:03:21;;;;;;;13.63;2.40;;;20.80;46.00;;;;;;5074968;28;20077;-63
2022/12/26 01:05:51;;;;;;;16.38;8.02;;;20.70;45.90;;;;;;5077249;28;20092;-62
2022/12/26 01:08:18;;;;;;;17.85;11.38;;;20.50;46.00;;;;;;5076035;28;20065;-62
2022/12/26 01:10:46;;;;;;;42.35;25.30;;;20.40;46.50;;;;;;5080804;28;20533;-63
2022/12/26 01:13:13;;;;;;;36.03;24.95;;;20.20;47.00;;;;;;5084935;28;20100;-62
2022/12/26 01:15:46;;;;;;;11.85;6.25;;;20.10;47.40;;;;;;5076038;28;20083;-62
2022/12/26 01:18:12;;;;;;;16.50;5.57;;;20.00;47.30;;;;;;5084474;28;20175;-61
2022/12/26 01:20:39;;;;;;;15.32;3.45;;;19.90;48.50;;;;;;5074398;28;20065;-60
2022/12/26 01:23:05;;;;;;;14.82;2.97;;;19.80;47.90;;;;;;5072084;28;20548;-60
2022/12/26 01:25:31;;;;;;;8.70;2.55;;;19.80;47.90;;;;;;5074098;28;20512;-61
2022/12/26 01:27:58;;;;;;;20.00;3.75;;;19.70;48.10;;;;;;5072771;28;20154;-60
2022/12/26 01:30:24;;;;;;;20.42;4.10;;;19.50;48.60;;;;;;5077506;28;20085;-62
2022/12/26 01:32:51;;;;;;;17.15;4.60;;;19.40;48.90;;;;;;5079627;28;20069;-62
2022/12/26 01:35:17;;;;;;;21.85;4.20;;;19.30;48.90;;;;;;5083517;28;20139;-61
2022/12/26 01:37:43;;;;;;;15.32;4.43;;;19.30;49.40;;;;;;5076082;28;20100;-61
2022/12/26 01:40:11;;;;;;;28.67;4.47;;;19.20;49.90;;;;;;5077368;28;20151;-60
2022/12/26 01:42:40;;;;;;;24.58;5.22;;;19.10;50.10;;;;;;5074077;28;20471;-61
2022/12/26 01:45:28;;;;;;;14.70;4.28;;;19.00;50.10;;;;;;5079949;28;20085;-61
2022/12/26 01:48:05;;;;;;;31.23;5.50;;;19.00;50.00;;;;;;5082485;28;20557;-61
2022/12/26 01:50:32;;;;;;;26.30;5.50;;;18.90;49.30;;;;;;5077529;28;20202;-63
2022/12/26 01:53:21;;;;;;;30.33;6.28;;;18.80;49.50;;;;;;5080267;28;20413;-63
2022/12/26 01:55:55;;;;;;;34.45;6.30;;;18.70;49.70;;;;;;5070234;28;20108;-61
2022/12/26 01:58:28;;;;;;;39.40;7.40;;;18.70;49.20;;;;;;5082619;28;20113;-63
2022/12/26 02:00:55;;;;;;;54.33;7.18;;;18.60;49.20;;;;;;5078439;28;20085;-61
2022/12/26 02:06:08;;;;;;;31.20;6.47;;;18.40;49.60;;;;;;5078412;28;20100;-60
2022/12/26 02:08:36;;;;;;;29.40;6.57;;;18.30;50.00;;;;;;5075897;28;20487;-60
2022/12/26 02:11:20;;;;;;;19.15;6.13;;;18.30;50.10;;;;;;5075792;28;20211;-59
2022/12/26 02:13:47;;;;;;;27.83;6.68;;;18.20;50.40;;;;;;5082391;28;20072;-60
2022/12/26 02:16:16;;;;;;;24.73;6.32;;;18.20;50.40;;;;;;5073320;28;20148;-61
2022/12/26 02:18:43;;;;;;;29.63;6.63;;;18.10;50.40;;;;;;5081021;28;20093;-61
2022/12/26 02:21:31;;;;;;;31.33;7.63;;;18.00;50.80;;;;;;5083233;28;20064;-60
2022/12/26 02:24:16;;;;;;;43.65;7.45;;;18.00;51.10;;;;;;5072120;28;20457;-61
2022/12/26 02:27:18;;;;;;;35.95;7.97;;;18.00;51.50;;;;;;5075188;28;20216;-60
2022/12/26 02:30:18;;;;;;;34.35;7.38;;;18.00;51.80;;;;;;5082256;28;20423;-60
2022/12/26 02:33:05;;;;;;;36.80;7.63;;;17.90;52.40;;;;;;5075414;28;20101;-60
2022/12/26 02:36:06;;;;;;;38.43;7.70;;;17.80;52.80;;;;;;5074600;28;20520;-61
2022/12/26 02:38:42;;;;;;;34.15;7.35;;;17.80;52.50;;;;;;5070447;28;20100;-59
2022/12/26 02:41:27;;;;;;;27.67;7.47;;;17.70;52.70;;;;;;5076407;28;20076;-60
2022/12/26 02:47:50;;;;;;;41.47;12.10;;;17.50;52.70;;;;;;5079999;28;20125;-60
2022/12/26 03:13:49;;;;;;;58.50;13.25;;;16.90;54.50;;;;;;5077776;28;20084;-60
2022/12/26 03:19:06;;;;;;;60.15;14.30;;;17.00;55.20;;;;;;5079299;28;20222;-60
2022/12/26 03:21:39;;;;;;;58.88;15.18;;;16.90;55.50;;;;;;5075894;28;20069;-61
2022/12/26 03:24:09;;;;;;;53.45;17.20;;;16.80;55.40;;;;;;5088090;28;20068;-63
2022/12/26 03:26:42;;;;;;;64.63;19.92;;;16.90;55.40;;;;;;5079921;28;20087;-61
2022/12/26 03:31:58;;;;;;;81.05;29.70;;;16.70;55.00;;;;;;5079593;28;20099;-67
2022/12/26 03:34:25;;;;;;;91.32;33.58;;;16.70;55.10;;;;;;5080159;28;20072;-66
2022/12/26 03:37:25;;;;;;;112.22;40.13;;;16.60;55.40;;;;;;5083168;28;20429;-66
2022/12/26 04:19:26;;;;;;;141.80;53.33;;;15.90;56.90;;;;;;5082816;28;20142;-65
2022/12/26 04:45:29;;;;;;;178.32;58.15;;;15.70;58.00;;;;;;5082536;28;20522;-67
2022/12/26 04:50:51;;;;;;;151.90;60.13;;;15.60;58.20;;;;;;5079831;28;20083;-67
2022/12/26 04:53:18;;;;;;;171.32;69.95;;;15.60;58.70;;;;;;5079867;28;20096;-65
2022/12/26 04:55:45;;;;;;;205.93;74.13;;;15.50;58.40;;;;;;5079330;28;20608;-67
2022/12/26 04:58:11;;;;;;;178.70;77.15;;;15.50;58.50;;;;;;5078186;28;20115;-69
2022/12/26 05:00:37;;;;;;;;;;;15.50;58.70;;;;;;5084343;28;20101;-68
2022/12/26 05:11:23;;;;;;;206.77;79.63;;;15.40;59.00;;;;;;5045462;28;20581;-67
2022/12/26 05:13:55;;;;;;;190.85;76.40;;;15.40;58.90;;;;;;5084703;28;20124;-66
2022/12/26 05:30:22;;;;;;;180.52;68.95;;;15.20;60.00;;;;;;5081661;28;20168;-66
2022/12/26 05:35:35;;;;;;;172.88;66.03;;;15.10;59.60;;;;;;5083596;28;20091;-67
2022/12/26 05:38:02;;;;;;;185.95;71.00;;;15.00;59.70;;;;;;5077129;28;20171;-65
2022/12/26 05:40:28;;;;;;;195.95;74.18;;;15.00;60.50;;;;;;5086212;28;20065;-67
2022/12/26 05:42:55;;;;;;;171.60;72.00;;;15.00;60.20;;;;;;5080920;28;20570;-67
2022/12/26 05:45:21;;;;;;;171.88;68.63;;;15.00;60.30;;;;;;5078569;28;20152;-66
2022/12/26 05:47:48;;;;;;;170.38;68.78;;;14.90;60.70;;;;;;5075317;28;20143;-67
2022/12/26 05:50:14;;;;;;;;;;;14.90;61.10;;;;;;5079213;28;20110;-67
2022/12/26 05:52:40;;;;;;;176.85;72.60;;;14.80;60.90;;;;;;5078056;28;20031;-67
2022/12/26 05:55:06;;;;;;;;;;;14.70;60.80;;;;;;5085276;28;20504;-64
2022/12/26 05:57:33;;;;;;;177.90;71.32;;;14.70;60.90;;;;;;5083805;28;20079;-65
2022/12/26 05:59:59;;;;;;;169.10;70.80;;;14.70;61.40;;;;;;5081547;28;20091;-65
2022/12/26 06:02:25;;;;;;;;;;;14.70;62.20;;;;;;5078391;28;20421;-67
2022/12/26 06:04:52;;;;;;;174.32;69.20;;;14.60;62.30;;;;;;5080214;28;19957;-67
2022/12/26 06:07:18;;;;;;;;;;;14.60;61.90;;;;;;5080233;28;20530;-67
2022/12/26 06:09:44;;;;;;;176.02;67.75;;;14.50;62.00;;;;;;5078951;28;20002;-67
2022/12/26 06:12:10;;;;;;;;;;;14.50;61.90;;;;;;5077220;28;20073;-66
2022/12/26 06:14:36;;;;;;;177.73;66.20;;;14.40;62.30;;;;;;5078914;28;19983;-66
2022/12/26 06:17:03;;;;;;;148.95;62.10;;;14.40;62.20;;;;;;5078543;28;20072;-68
2022/12/26 06:19:29;;;;;;;;;;;14.40;62.50;;;;;;5081785;28;20532;-65
2022/12/26 06:21:55;;;;;;;173.48;65.15;;;14.50;61.90;;;;;;5083381;28;19956;-66
2022/12/26 06:24:24;;;;;;;163.75;64.03;;;14.50;62.20;;;;;;5083430;28;20082;-66
2022/12/26 06:26:53;;;;;;;147.48;61.47;;;14.40;62.20;;;;;;5083013;28;20142;-70
2022/12/26 06:29:20;;;;;;;153.95;62.47;;;14.30;63.00;;;;;;5083118;28;20088;-68
2022/12/26 06:31:46;;;;;;;;;;;14.30;62.50;;;;;;5083208;28;20067;-67
2022/12/26 06:34:12;;;;;;;192.60;78.53;;;14.40;63.20;;;;;;5074547;28;19960;-67
2022/12/26 06:36:39;;;;;;;170.15;68.63;;;14.40;63.60;;;;;;5082181;28;20521;-66
2022/12/26 06:39:05;;;;;;;162.25;66.35;;;14.30;63.30;;;;;;5081637;28;20499;-66
2022/12/26 06:41:32;;;;;;;156.93;66.97;;;14.10;63.40;;;;;;5081361;28;20080;-66
2022/12/26 06:43:58;;;;;;;;;;;14.20;63.80;;;;;;5070280;28;20077;-65
2022/12/26 06:46:26;;;;;;;163.50;62.17;;;14.20;64.00;;;;;;5071361;28;19957;-66
2022/12/26 06:48:52;;;;;;;171.15;58.42;;;14.20;64.10;;;;;;5069654;28;20128;-67
2022/12/26 06:51:19;;;;;;;;;;;14.20;63.70;;;;;;5079502;28;20073;-67
2022/12/26 06:53:47;;;;;;;144.73;56.30;;;14.20;63.70;;;;;;5074925;28;19995;-66
2022/12/26 06:56:19;;;;;;;139.15;52.65;;;14.20;63.30;;;;;;5076605;28;20570;-65
2022/12/26 06:58:45;;;;;;;164.93;56.92;;;14.20;64.40;;;;;;5078774;28;20541;-67
2022/12/26 07:01:14;;;;;;;135.95;51.60;;;14.10;64.40;;;;;;5069684;28;20100;-67
2022/12/26 07:03:42;;;;;;;137.85;52.85;;;14.10;64.60;;;;;;5068539;28;20542;-68
2022/12/26 07:06:19;;;;;;;134.65;53.42;;;14.10;64.40;;;;;;5069818;28;20069;-66
2022/12/26 07:08:45;;;;;;;169.15;53.72;;;13.90;64.60;;;;;;5069319;28;20079;-67
2022/12/26 07:11:15;;;;;;;;;;;13.90;64.70;;;;;;5069790;28;20433;-66
2022/12/26 07:13:42;;;;;;;146.68;52.88;;;13.80;64.70;;;;;;5086372;28;20098;-67
2022/12/26 07:16:09;;;;;;;140.35;54.50;;;13.80;65.80;;;;;;5075328;28;20073;-66
2022/12/26 07:18:36;;;;;;;137.13;53.90;;;13.80;66.00;;;;;;5067972;28;20096;-65
2022/12/26 07:21:07;;;;;;;120.40;50.53;;;13.80;65.90;;;;;;5073370;28;20076;-67
2022/12/26 07:23:33;;;;;;;133.73;52.70;;;13.80;65.90;;;;;;5078914;28;20148;-65
2022/12/26 07:26:00;;;;;;;124.75;51.22;;;13.70;66.00;;;;;;5076886;28;20156;-66
2022/12/26 07:28:27;;;;;;;131.20;53.97;;;13.70;65.90;;;;;;5083450;28;20490;-68
2022/12/26 07:30:53;;;;;;;144.82;55.33;;;13.70;66.30;;;;;;5078699;28;20434;-67
2022/12/26 07:33:20;;;;;;;;;;;13.70;66.50;;;;;;5074894;28;20071;-68
2022/12/26 07:35:46;;;;;;;136.93;52.97;;;13.70;66.20;;;;;;5081901;28;19972;-66
2022/12/26 07:38:13;;;;;;;155.80;54.88;;;13.60;66.40;;;;;;5078672;28;20142;-66
2022/12/26 07:40:39;;;;;;;143.75;51.78;;;13.60;66.00;;;;;;5079153;28;20538;-67
2022/12/26 07:43:06;;;;;;;150.02;57.28;;;13.60;65.90;;;;;;5080317;28;20102;-67
2022/12/26 07:45:32;;;;;;;;;;;13.60;65.90;;;;;;5075484;28;20365;-66
2022/12/26 07:47:58;;;;;;;148.48;55.58;;;13.60;66.10;;;;;;5079881;28;19972;-66
2022/12/26 07:50:27;;;;;;;168.35;58.33;;;13.60;66.30;;;;;;5076467;28;20071;-66
2022/12/26 07:52:54;;;;;;;151.75;54.42;;;13.60;66.40;;;;;;5080697;28;20093;-67
2022/12/26 07:55:21;;;;;;;159.40;57.58;;;13.50;66.20;;;;;;5084318;28;20089;-67
2022/12/26 07:57:51;;;;;;;167.25;58.92;;;13.50;66.50;;;;;;5086116;28;20108;-68
2022/12/26 08:00:18;;;;;;;180.85;65.28;;;13.40;66.30;;;;;;5080585;28;20156;-67
2022/12/26 08:02:49;;;;;;;179.52;67.05;;;13.40;66.10;;;;;;5077785;28;20095;-68
2022/12/26 08:05:16;;;;;;;178.60;66.43;;;13.40;66.40;;;;;;5081390;28;20069;-66
2022/12/26 08:07:45;;;;;;;191.77;66.95;;;13.40;66.20;;;;;;5084737;28;20065;-67
2022/12/26 08:10:11;;;;;;;189.00;69.45;;;13.40;65.80;;;;;;5075824;28;20146;-66
2022/12/26 08:12:37;;;;;;;;;;;13.40;65.70;;;;;;5086524;28;20081;-66
2022/12/26 08:15:04;;;;;;;205.15;74.88;;;13.30;65.60;;;;;;5084046;28;19957;-66
2022/12/26 08:17:31;;;;;;;219.00;76.68;;;13.30;65.60;;;;;;5085107;28;20069;-69
2022/12/26 08:19:58;;;;;;;192.27;71.57;;;13.20;65.50;;;;;;5082370;28;20534;-66
2022/12/26 08:22:24;;;;;;;223.38;78.45;;;13.30;65.60;;;;;;5085395;28;20087;-66
2022/12/26 08:24:50;;;;;;;;;;;13.30;66.70;;;;;;5077600;28;20073;-66
2022/12/26 08:27:17;;;;;;;217.48;76.03;;;13.20;65.90;;;;;;5083764;28;19957;-67
2022/12/26 08:29:43;;;;;;;;;;;13.20;66.50;;;;;;5085310;28;20541;-66
2022/12/26 08:32:09;;;;;;;210.80;73.65;;;13.20;66.60;;;;;;5084191;28;19957;-68
2022/12/26 08:34:35;;;;;;;;;;;13.20;66.70;;;;;;5085656;28;20077;-68
2022/12/26 08:37:02;;;;;;;225.02;77.80;;;13.10;67.10;;;;;;5083705;28;19964;-67
2022/12/26 08:39:28;;;;;;;212.18;85.20;;;13.10;66.50;;;;;;5081077;28;20077;-67
2022/12/26 08:41:55;;;;;;;;;;;13.10;66.50;;;;;;5079661;28;20522;-66
2022/12/26 08:44:21;;;;;;;216.90;83.13;;;13.10;66.80;;;;;;5082402;28;20440;-67
2022/12/26 08:46:47;;;;;;;236.40;93.10;;;13.10;66.80;;;;;;5084767;28;20564;-67
2022/12/26 08:49:13;;;;;;;;;;;13.10;67.00;;;;;;5077592;28;20080;-65
2022/12/26 08:51:40;;;;;;;238.82;88.72;;;13.10;67.10;;;;;;5085829;28;19977;-66
2022/12/26 08:54:06;;;;;;;223.23;91.68;;;13.10;66.80;;;;;;5076617;28;20080;-65
2022/12/26 08:56:32;;;;;;;;;;;13.00;67.00;;;;;;5074335;28;20123;-67
2022/12/26 08:58:59;;;;;;;182.23;78.90;;;13.00;66.50;;;;;;5080686;28;20019;-68
2022/12/26 09:01:26;;;;;;;;;;;13.10;66.30;;;;;;5084268;28;20073;-67
2022/12/26 09:03:55;;;;;;;220.20;83.00;;;13.10;66.50;;;;;;5079610;28;19960;-68
2022/12/26 09:06:22;;;;;;;200.88;77.10;;;13.00;67.50;;;;;;5083081;28;20069;-66
2022/12/26 09:08:48;;;;;;;199.07;74.85;;;13.00;66.60;;;;;;5084597;28;20423;-67
2022/12/26 09:11:15;;;;;;;;;;;13.00;66.90;;;;;;5077656;28;20569;-66
2022/12/26 09:13:42;;;;;;;;;;;13.10;65.40;;;;;;5080129;28;19972;-66
2022/12/26 09:16:17;;;;;;;87.93;31.50;;;13.10;61.80;;;;;;5080971;28;19952;-67
2022/12/26 09:18:45;;;;;;;62.33;25.23;;;13.30;59.40;;;;;;5083082;28;20599;-66
2022/12/26 09:21:13;;;;;;;45.90;16.95;;;13.50;57.90;;;;;;5077172;28;20061;-67
2022/12/26 09:23:41;;;;;;;34.47;12.43;;;13.60;56.20;;;;;;5079531;28;20081;-66
2022/12/26 09:26:12;;;;;;;28.27;9.38;;;13.70;54.70;;;;;;5078029;28;20097;-65
2022/12/26 09:28:41;;;;;;;20.60;7.25;;;13.90;53.80;;;;;;5079996;28;20073;-65
2022/12/26 09:31:11;;;;;;;23.88;6.75;;;14.00;53.50;;;;;;5082317;28;20104;-65
2022/12/26 09:33:37;;;;;;;16.35;6.38;;;14.10;53.30;;;;;;5081038;28;20133;-67
2022/12/26 09:36:13;;;;;;;22.17;6.72;;;14.10;53.10;;;;;;5080239;28;20155;-67
2022/12/26 09:38:39;;;;;;;17.05;6.88;;;14.10;53.10;;;;;;5080286;28;20095;-66
2022/12/26 09:41:18;;;;;;;17.70;6.95;;;14.10;53.10;;;;;;5076142;28;20115;-67
2022/12/26 09:44:03;;;;;;;18.25;6.63;;;14.00;53.30;;;;;;5080127;28;20521;-67
2022/12/26 09:46:43;;;;;;;21.83;7.18;;;14.10;53.50;;;;;;5078517;28;20079;-65
2022/12/26 09:49:12;;;;;;;18.63;7.75;;;14.00;53.50;;;;;;5078991;28;20087;-66
2022/12/26 09:51:42;;;;;;;21.35;7.93;;;14.00;53.80;;;;;;5077379;28;20115;-68
2022/12/26 09:54:17;;;;;;;21.42;7.63;;;13.90;54.10;;;;;;5081865;28;20076;-66
2022/12/26 09:56:45;;;;;;;17.00;8.35;;;13.90;54.40;;;;;;5080812;28;20120;-68
2022/12/26 09:59:19;;;;;;;23.52;7.50;;;13.80;54.70;;;;;;5080756;28;20085;-67
2022/12/26 10:01:47;;;;;;;20.95;7.47;;;13.80;55.10;;;;;;5080283;28;20061;-66
2022/12/26 10:04:19;;;;;;;29.70;7.93;;;13.70;55.50;;;;;;5076071;28;20071;-67
2022/12/26 10:06:58;;;;;;;27.38;9.93;;;13.60;56.00;;;;;;5080364;28;20118;-67
2022/12/26 10:09:39;;;;;;;40.42;17.35;;;13.50;56.10;;;;;;5080152;28;20073;-66
2022/12/26 10:12:09;;;;;;;27.80;12.10;;;13.50;56.50;;;;;;5079461;28;20080;-67
2022/12/26 10:14:53;;;;;;;32.08;10.60;;;13.50;56.80;;;;;;5078279;28;20073;-65
2022/12/26 10:17:46;;;;;;;27.30;9.73;;;13.50;57.20;;;;;;5078142;28;20077;-67
2022/12/26 10:20:16;;;;;;;23.15;9.15;;;13.40;57.40;;;;;;5073817;28;20426;-68
2022/12/26 10:22:43;;;;;;;38.30;10.18;;;13.40;58.00;;;;;;5077609;28;20081;-65
2022/12/26 10:25:23;;;;;;;;;;;13.30;58.20;;;;;;5076193;28;20140;-66
2022/12/26 10:27:50;;;;;;;26.60;9.15;;;13.30;58.10;;;;;;5078382;28;20061;-67
2022/12/26 10:30:34;;;;;;;24.98;9.68;;;13.10;58.70;;;;;;5076407;28;20118;-66
2022/12/26 10:33:17;;;;;;;27.02;8.32;;;13.10;59.00;;;;;;5076357;28;20091;-67
2022/12/26 10:35:45;;;;;;;24.70;8.30;;;13.00;59.00;;;;;;5077424;28;20077;-67
2022/12/26 10:38:37;;;;;;;24.17;8.38;;;13.00;59.50;;;;;;5079523;28;20103;-67
2022/12/26 10:41:24;;;;;;;26.42;9.40;;;12.80;59.80;;;;;;5077048;28;20264;-66
2022/12/26 10:43:51;;;;;;;23.58;8.43;;;12.70;60.10;;;;;;5078914;28;20548;-68
2022/12/26 10:46:35;;;;;;;34.17;9.25;;;12.70;60.40;;;;;;5081626;28;20073;-66
2022/12/26 10:49:02;;;;;;;26.73;9.35;;;12.70;60.70;;;;;;5078576;28;20093;-67
2022/12/26 10:51:29;;;;;;;26.05;9.05;;;12.70;60.70;;;;;;5075249;28;20079;-65
2022/12/26 10:53:56;;;;;;;25.13;8.90;;;12.70;61.10;;;;;;5079795;28;20199;-67
2022/12/26 10:56:25;;;;;;;18.33;9.40;;;12.70;62.30;;;;;;5075784;28;20108;-66
2022/12/26 10:59:02;;;;;;;30.52;10.30;;;12.60;62.80;;;;;;5081098;28;20081;-67
2022/12/26 11:01:35;;;;;;;22.88;10.10;;;12.50;62.50;;;;;;5072352;28;20071;-67
2022/12/26 11:04:17;;;;;;;26.50;9.38;;;12.50;62.80;;;;;;5079184;28;20483;-66
2022/12/26 11:06:44;;;;;;;31.80;16.40;;;12.40;62.80;;;;;;5079783;28;20160;-65
2022/12/26 11:09:34;;;;;;;37.55;16.05;;;12.40;63.80;;;;;;5077213;28;20069;-65
2022/12/26 11:12:02;;;;;;;30.13;13.90;;;12.30;63.50;;;;;;5075879;28;20077;-65
2022/12/26 11:14:38;;;;;;;31.92;12.65;;;12.20;64.00;;;;;;5077323;28;20093;-66
2022/12/26 11:17:12;;;;;;;31.23;12.23;;;12.20;63.90;;;;;;5078459;28;20073;-65
2022/12/26 11:19:43;;;;;;;32.30;10.88;;;12.20;63.90;;;;;;5074200;28;20158;-66
2022/12/26 11:22:25;;;;;;;28.40;11.07;;;12.20;64.00;;;;;;5076195;28;20065;-65
2022/12/26 11:25:18;;;;;;;23.40;10.63;;;12.10;64.60;;;;;;5077088;28;20084;-68
2022/12/26 11:27:54;;;;;;;31.10;12.07;;;12.10;64.30;;;;;;5076752;28;20073;-65
2022/12/26 11:30:25;;;;;;;26.77;10.52;;;12.00;64.80;;;;;;5081666;28;20092;-65
2022/12/26 11:33:03;;;;;;;33.50;11.68;;;12.00;65.40;;;;;;5086054;28;20065;-68
2022/12/26 11:35:35;;;;;;;31.92;12.20;;;12.00;65.00;;;;;;5074196;28;20103;-66
2022/12/26 11:38:04;;;;;;;38.67;13.75;;;12.00;64.80;;;;;;5085818;28;20077;-67
2022/12/26 11:41:30;;;;;;;43.65;17.20;;;12.00;64.80;;;;;;5084572;28;20069;-67
2022/12/26 11:43:26;;;;;;;45.67;18.33;;;12.00;63.90;;;;;;5077874;28;20085;-67
2022/12/26 11:45:53;;;;;;;48.90;19.10;;;12.00;63.70;;;;;;5078686;28;20069;-67
2022/12/26 11:48:25;;;;;;;47.42;18.90;;;12.00;63.40;;;;;;5080359;28;20461;-66
2022/12/26 11:50:53;;;;;;;51.22;18.17;;;11.90;63.60;;;;;;5075619;28;20141;-67
2022/12/26 11:53:22;;;;;;;48.38;18.77;;;11.90;64.20;;;;;;5079724;28;20085;-67
2022/12/26 11:56:04;;;;;;;59.92;20.48;;;11.80;64.60;;;;;;5079848;28;20076;-67
2022/12/26 11:58:32;;;;;;;50.88;20.42;;;11.80;64.10;;;;;;5079847;28;20107;-68
2022/12/26 12:00:59;;;;;;;57.55;20.33;;;11.80;64.30;;;;;;5079856;28;20549;-68
2022/12/26 12:03:27;;;;;;;;;;;11.80;64.20;;;;;;5081630;28;20084;-67
2022/12/26 12:06:12;;;;;;;60.65;18.83;;;11.80;63.70;;;;;;5078131;28;19957;-66
2022/12/26 12:08:51;;;;;;;51.33;19.88;;;11.80;63.70;;;;;;5078391;28;20118;-67
2022/12/26 12:11:27;;;;;;;55.95;19.77;;;11.70;63.90;;;;;;5079051;28;20449;-67
2022/12/26 12:14:02;;;;;;;64.85;20.65;;;11.70;64.30;;;;;;5082286;28;20084;-68
2022/12/26 12:16:41;;;;;;;58.13;20.15;;;11.70;64.70;;;;;;5073568;28;20088;-66
2022/12/26 12:19:32;;;;;;;56.60;19.58;;;11.60;65.00;;;;;;5075591;28;20468;-68
2022/12/26 12:22:30;;;;;;;55.42;19.48;;;11.40;65.40;;;;;;5077652;28;20072;-67
2022/12/26 12:25:15;;;;;;;59.90;19.25;;;11.50;65.80;;;;;;5070068;28;20566;-66
2022/12/26 12:27:59;;;;;;;55.28;20.80;;;11.50;65.70;;;;;;5072181;28;20100;-68
2022/12/26 12:30:50;;;;;;;49.65;19.52;;;11.40;65.50;;;;;;5079603;28;20091;-67
2022/12/26 12:33:47;;;;;;;55.28;19.80;;;11.40;66.00;;;;;;5075522;28;20072;-67
2022/12/26 12:36:36;;;;;;;52.97;18.50;;;11.30;66.20;;;;;;5084314;28;20440;-68
2022/12/26 12:39:19;;;;;;;57.85;17.77;;;11.30;66.20;;;;;;5080768;28;20085;-66
2022/12/26 12:42:03;;;;;;;56.40;19.67;;;11.30;66.10;;;;;;5081933;28;20428;-66
2022/12/26 12:44:51;;;;;;;48.05;19.42;;;11.40;66.10;;;;;;5077962;28;20115;-66
2022/12/26 12:47:50;;;;;;;56.67;22.60;;;11.30;66.70;;;;;;5081828;28;20089;-67
2022/12/26 12:50:22;;;;;;;52.83;18.55;;;11.30;66.80;;;;;;5074092;28;20081;-66
2022/12/26 12:53:04;;;;;;;51.00;18.83;;;11.20;66.60;;;;;;5081680;28;20557;-67
2022/12/26 12:55:50;;;;;;;47.92;18.05;;;11.20;67.50;;;;;;5078038;28;20073;-66
2022/12/26 12:58:41;;;;;;;54.50;17.55;;;11.20;67.20;;;;;;5085319;28;20101;-67
2022/12/26 13:01:54;;;;;;;56.50;18.55;;;11.30;67.30;;;;;;5081012;28;20072;-68
2022/12/26 13:04:42;;;;;;;46.67;17.98;;;11.20;67.20;;;;;;5083953;28;20156;-68
2022/12/26 13:07:35;;;;;;;52.10;18.95;;;11.10;68.60;;;;;;5083526;28;20061;-66
2022/12/26 13:10:18;;;;;;;49.72;19.15;;;11.20;68.30;;;;;;5080859;28;20072;-67
2022/12/26 13:12:48;;;;;;;60.75;19.38;;;11.20;68.20;;;;;;5081907;28;20599;-66
2022/12/26 13:15:33;;;;;;;46.00;18.90;;;11.20;68.30;;;;;;5083848;28;20076;-66
2022/12/26 13:18:22;;;;;;;53.17;20.55;;;11.20;68.40;;;;;;5076737;28;20457;-68
2022/12/26 13:21:15;;;;;;;51.08;19.15;;;11.10;68.40;;;;;;5077201;28;20421;-67
2022/12/26 13:24:23;;;;;;;46.55;21.23;;;11.20;68.60;;;;;;5074763;28;20120;-67
2022/12/26 13:26:57;;;;;;;53.90;21.10;;;11.20;68.70;;;;;;5078681;28;20429;-66
2022/12/26 13:29:38;;;;;;;60.65;21.55;;;11.10;68.70;;;;;;5083198;28;20073;-68
2022/12/26 13:32:21;;;;;;;57.53;22.92;;;11.00;69.20;;;;;;5079619;28;20222;-68
2022/12/26 13:34:50;;;;;;;57.95;20.77;;;10.90;69.80;;;;;;5079154;28;20542;-66
2022/12/26 13:37:38;;;;;;;47.38;20.98;;;10.90;70.30;;;;;;5083667;28;20100;-65
2022/12/26 13:40:10;;;;;;;49.97;18.23;;;11.20;70.30;;;;;;5075750;28;20084;-65
2022/12/26 13:45:42;;;;;;;38.30;18.23;;;13.20;64.40;;;;;;5078218;28;20098;-64
2022/12/26 13:48:17;;;;;;;55.58;19.48;;;13.50;61.90;;;;;;5082629;28;20084;-63
2022/12/26 13:50:54;;;;;;;44.28;18.95;;;14.00;61.20;;;;;;5079081;28;20078;-65
2022/12/26 13:53:33;;;;;;;44.58;17.98;;;13.90;60.80;;;;;;5077941;28;20069;-65
2022/12/26 13:56:02;;;;;;;51.45;17.85;;;13.70;60.10;;;;;;5075670;28;20463;-64
2022/12/26 13:58:47;;;;;;;53.58;18.55;;;13.40;61.40;;;;;;5078554;28;20150;-65
2022/12/26 14:01:35;;;;;;;49.85;18.70;;;13.10;62.10;;;;;;5077221;28;20076;-64
2022/12/26 14:04:17;;;;;;;53.10;18.58;;;13.30;62.40;;;;;;5081163;28;20064;-65
2022/12/26 14:07:14;;;;;;;51.13;19.30;;;13.00;62.60;;;;;;5083969;28;20525;-66
2022/12/26 14:10:18;;;;;;;46.40;17.70;;;13.10;63.60;;;;;;5084077;28;20072;-66
2022/12/26 14:12:50;;;;;;;43.13;19.05;;;13.40;62.10;;;;;;5078997;28;20163;-64
2022/12/26 14:15:51;;;;;;;45.97;20.00;;;13.10;63.00;;;;;;5080266;28;20075;-65
2022/12/26 14:18:33;;;;;;;45.28;19.23;;;13.00;63.30;;;;;;5077557;28;20145;-65
2022/12/26 14:21:18;;;;;;;50.15;18.38;;;12.80;64.20;;;;;;5077288;28;20567;-67
2022/12/26 14:23:56;;;;;;;58.00;20.65;;;13.20;63.50;;;;;;5084273;28;20088;-64
2022/12/26 14:26:30;;;;;;;44.63;20.05;;;12.90;63.80;;;;;;5080402;28;20543;-66
2022/12/26 14:29:12;;;;;;;48.22;18.70;;;13.00;63.90;;;;;;5080681;28;20497;-66
2022/12/26 14:31:59;;;;;;;46.30;20.75;;;12.90;63.70;;;;;;5083380;28;20108;-64
2022/12/26 14:34:47;;;;;;;55.58;20.08;;;12.80;64.60;;;;;;5077544;28;20072;-65
2022/12/26 14:37:30;;;;;;;50.30;19.95;;;12.70;65.50;;;;;;5075723;28;20596;-66
2022/12/26 14:40:23;;;;;;;56.30;19.90;;;13.00;64.80;;;;;;5075000;28;20099;-66
2022/12/26 14:43:10;;;;;;;58.58;21.10;;;12.80;65.00;;;;;;5075225;28;20171;-66
2022/12/26 14:45:41;;;;;;;;;;;12.90;64.40;;;;;;5080648;28;20065;-65
2022/12/26 14:48:17;;;;;;;47.53;20.02;;;13.00;64.00;;;;;;5087139;28;19979;-65
2022/12/26 14:50:51;;;;;;;48.15;20.10;;;13.00;64.10;;;;;;5081001;28;20116;-66
2022/12/26 14:53:27;;;;;;;51.55;21.55;;;12.90;64.40;;;;;;5075321;28;20071;-65
2022/12/26 14:56:07;;;;;;;66.60;23.05;;;12.60;65.20;;;;;;5080631;28;20540;-64
2022/12/26 14:58:41;;;;;;;64.53;23.80;;;12.50;65.70;;;;;;5079018;28;20088;-66
2022/12/26 15:01:19;;;;;;;76.80;25.10;;;12.40;66.50;;;;;;5080771;28;20072;-65
2022/12/26 15:04:06;;;;;;;81.68;25.40;;;12.40;66.60;;;;;;5076550;28;20077;-65
2022/12/26 15:06:57;;;;;;;72.72;25.75;;;12.60;65.90;;;;;;5078107;28;20065;-66
2022/12/26 15:09:47;;;;;;;76.90;27.73;;;12.40;65.60;;;;;;5072062;28;20131;-67
2022/12/26 15:12:14;;;;;;;83.55;27.02;;;12.30;66.30;;;;;;5084580;28;20072;-63
2022/12/26 15:14:40;;;;;;;;;;;12.20;67.00;;;;;;5072385;28;20077;-65
2022/12/26 15:17:06;;;;;;;63.92;26.55;;;12.30;67.00;;;;;;5075509;28;19953;-65
2022/12/26 15:19:41;;;;;;;;;;;12.40;66.90;;;;;;5079090;28;20089;-64